Estación Meteorológica Peña el Pijo (Robertgarden) [ 12/03/23 17:22:04 CET ]

Fecha Hora Presion(HPa) Temp (°C) Humedad % Rocio (°C) Viento ( m/s) Direccion Lluvia 1Hora(mm) Lluvia 24H(mm) LLuvia Total(mm)
2012-Feb-22 01:01:14 1015.800 -2.6 76 -6.3         153.32
2012-Feb-22 02:01:49 1015.700 -3.1 80 -6.1         153.32
2012-Feb-22 03:01:46 1015.800 -3.4 80 -6.4         153.32
2012-Feb-22 04:05:12 1015.100 -4.1 82 -6.7         153.32
2012-Feb-22 05:01:17 1014.700 -4.4 82 -7.0         153.32
2012-Feb-22 06:01:19 1015.100 -4.8 81 -7.5         153.32
2012-Feb-22 07:01:18 1015.300 -5.0 82 -7.6         153.32
2012-Feb-22 08:01:18 1015.600 -5.2 81 -8.0         153.32
2012-Feb-22 09:01:14 1015.900 -3.5 83 -6.0         153.32
2012-Feb-22 10:01:14 1016.000 2.8 65 -3.1         153.32
2012-Feb-22 11:01:12 1016.100 8.8 44 -2.9         153.32
2012-Feb-22 12:01:12 1016.000 10.1 32 -6.0         153.32
2012-Feb-22 13:01:13 1015.600 12.9 27 -5.8         153.32
2012-Feb-22 14:01:14 1015.100 13.3 25 -6.5         153.32
2012-Feb-22 15:01:18 1014.800 13.4 24 -7.0 1.0 NNE     153.32
2012-Feb-22 16:01:51 1014.500 13.8 21 -8.2 1.1 NNE     153.32
2012-Feb-22 17:01:41 1014.500 13.6 20 -8.9         153.32
2012-Feb-22 18:01:43 1014.700 9.8 24 -10.0         153.32
2012-Feb-22 19:01:44 1015.100 6.4 29 -10.4         153.32
2012-Feb-22 20:01:44 1015.600 1.9 41 -10.0         153.32
2012-Feb-22 21:01:12 1016.100 0.3 43 -10.9         153.32
2012-Feb-22 22:01:17 1016.900 -1.4 51 -10.2         153.32
2012-Feb-22 23:01:13 1017.200 -1.9 55 -9.8         153.32

Temperatura Máxima:13°    Temperatura Mínima:-5°
Presión Máxima:1017.200 Hpa    Presión Mínima:1014.500 Hpa


Volver